createdAt,value
2022-08-17T00:00:34.642Z,21.60
2022-08-17T00:03:17.328Z,21.70
2022-08-17T00:05:48.277Z,21.70
2022-08-17T00:08:20.193Z,21.60
2022-08-17T00:10:48.019Z,21.50
2022-08-17T00:13:24.391Z,21.50
2022-08-17T00:16:01.041Z,21.40
2022-08-17T00:19:00.360Z,21.40
2022-08-17T00:21:23.869Z,21.40
2022-08-17T00:23:52.153Z,21.40
2022-08-17T00:26:34.605Z,21.40
2022-08-17T00:29:07.181Z,21.40
2022-08-17T00:31:35.581Z,21.30
2022-08-17T00:34:03.704Z,21.30
2022-08-17T00:36:30.420Z,21.20
2022-08-17T00:38:57.127Z,21.20
2022-08-17T00:41:29.877Z,21.10
2022-08-17T00:44:03.279Z,21.10
2022-08-17T00:46:42.032Z,21.00
2022-08-17T00:49:15.626Z,21.00
2022-08-17T00:51:48.029Z,21.00
2022-08-17T00:54:29.874Z,21.00
2022-08-17T00:57:21.239Z,21.00
2022-08-17T01:00:03.196Z,21.00
2022-08-17T01:02:41.201Z,20.90
2022-08-17T01:05:25.422Z,20.90
2022-08-17T01:07:58.720Z,20.90
2022-08-17T01:10:58.556Z,20.90
2022-08-17T01:13:24.401Z,20.80
2022-08-17T01:16:00.339Z,20.80
2022-08-17T01:18:27.768Z,20.80
2022-08-17T01:20:57.572Z,20.70
2022-08-17T01:23:28.849Z,20.70
2022-08-17T01:26:01.398Z,20.70
2022-08-17T01:28:53.426Z,20.70
2022-08-17T01:31:20.700Z,20.60
2022-08-17T01:33:47.601Z,20.60
2022-08-17T01:36:18.713Z,20.60
2022-08-17T01:38:45.503Z,20.60
2022-08-17T01:41:15.556Z,20.60
2022-08-17T01:43:56.903Z,20.50
2022-08-17T01:46:28.543Z,20.50
2022-08-17T01:48:58.297Z,20.40
2022-08-17T01:51:32.352Z,20.40
2022-08-17T01:54:02.827Z,20.40
2022-08-17T01:56:33.922Z,20.40
2022-08-17T01:59:03.026Z,20.40
2022-08-17T02:01:34.520Z,20.40
2022-08-17T02:04:05.471Z,20.40
2022-08-17T02:06:52.930Z,20.40
2022-08-17T02:09:26.077Z,20.40
2022-08-17T02:11:58.342Z,20.30
2022-08-17T02:14:28.232Z,20.30
2022-08-17T02:16:55.998Z,20.20
2022-08-17T02:19:27.050Z,20.20
2022-08-17T02:21:54.461Z,20.10
2022-08-17T02:24:58.499Z,20.10
2022-08-17T02:27:12.762Z,20.10
2022-08-17T02:29:44.186Z,20.00
2022-08-17T02:32:28.453Z,20.10
2022-08-17T02:34:58.258Z,20.00
2022-08-17T02:37:28.370Z,20.00
2022-08-17T02:39:58.560Z,20.00
2022-08-17T02:42:33.740Z,20.00
2022-08-17T02:45:02.392Z,20.00
2022-08-17T02:47:29.719Z,20.00
2022-08-17T02:49:56.498Z,19.90
2022-08-17T02:52:43.860Z,19.90
2022-08-17T02:55:16.916Z,20.00
2022-08-17T02:57:44.646Z,20.00
2022-08-17T03:00:17.930Z,20.00
2022-08-17T03:02:45.546Z,20.00
2022-08-17T03:05:21.253Z,20.00
2022-08-17T03:07:48.141Z,20.00
2022-08-17T03:10:15.585Z,20.00
2022-08-17T03:12:43.384Z,20.00
2022-08-17T03:15:22.796Z,20.00
2022-08-17T03:17:49.785Z,20.00
2022-08-17T03:20:19.368Z,19.90
2022-08-17T03:22:53.723Z,20.00
2022-08-17T03:25:30.200Z,20.00
2022-08-17T03:27:57.629Z,20.00
2022-08-17T03:30:27.930Z,19.90
2022-08-17T03:32:57.662Z,20.00
2022-08-17T03:35:27.408Z,19.90
2022-08-17T03:38:00.337Z,19.90
2022-08-17T03:40:34.430Z,19.90
2022-08-17T03:43:20.068Z,19.90
2022-08-17T03:46:05.999Z,19.80
2022-08-17T03:48:59.114Z,19.80
2022-08-17T03:51:46.863Z,19.70
2022-08-17T03:54:32.266Z,19.70
2022-08-17T03:57:11.542Z,19.70
2022-08-17T03:59:39.093Z,19.60
2022-08-17T04:02:13.034Z,19.60
2022-08-17T04:04:42.216Z,19.60
2022-08-17T04:07:11.154Z,19.50
2022-08-17T04:09:40.163Z,19.50
2022-08-17T04:12:09.159Z,19.50
2022-08-17T04:14:47.755Z,19.50
2022-08-17T04:17:21.272Z,19.50
2022-08-17T04:19:48.071Z,19.50
2022-08-17T04:22:30.930Z,19.50
2022-08-17T04:25:24.129Z,19.40
2022-08-17T04:27:53.870Z,19.40
2022-08-17T04:30:20.629Z,19.40
2022-08-17T04:33:06.057Z,19.40
2022-08-17T04:35:49.178Z,19.40
2022-08-17T04:38:31.016Z,19.40
2022-08-17T04:41:17.724Z,19.40
2022-08-17T04:43:46.417Z,19.30
2022-08-17T04:46:20.715Z,19.30
2022-08-17T04:48:52.770Z,19.30
2022-08-17T04:51:54.447Z,19.40
2022-08-17T04:54:24.584Z,19.30
2022-08-17T04:56:53.434Z,19.30
2022-08-17T04:59:22.124Z,19.30
2022-08-17T05:01:52.727Z,19.40
2022-08-17T05:04:34.432Z,19.40
2022-08-17T05:07:02.262Z,19.50
2022-08-17T05:09:31.559Z,19.50
2022-08-17T05:12:02.198Z,19.60
2022-08-17T05:14:33.137Z,19.60
2022-08-17T05:17:01.222Z,19.60
2022-08-17T05:19:28.930Z,19.70
2022-08-17T05:21:57.891Z,19.70
2022-08-17T05:24:39.131Z,19.70
2022-08-17T05:27:10.512Z,19.60
2022-08-17T05:29:46.646Z,19.60
2022-08-17T05:32:38.289Z,19.70
2022-08-17T05:35:01.026Z,19.70
2022-08-17T05:37:29.995Z,19.80
2022-08-17T05:40:01.432Z,19.80
2022-08-17T05:42:30.309Z,19.80
2022-08-17T05:44:58.798Z,19.90
2022-08-17T05:47:27.116Z,19.90
2022-08-17T05:49:54.492Z,19.90
2022-08-17T05:52:38.067Z,20.00
2022-08-17T05:55:09.690Z,20.10
2022-08-17T05:57:53.341Z,20.10
2022-08-17T06:00:30.327Z,20.20
2022-08-17T06:03:22.210Z,20.20
2022-08-17T06:06:07.436Z,20.20
2022-08-17T06:09:09.201Z,20.30
2022-08-17T06:11:41.414Z,20.40
2022-08-17T06:14:45.752Z,20.50
2022-08-17T06:17:21.946Z,20.70
2022-08-17T06:20:08.337Z,20.80
2022-08-17T06:22:42.130Z,20.90
2022-08-17T06:25:14.429Z,20.90
2022-08-17T06:27:43.799Z,20.90
2022-08-17T06:30:27.193Z,20.90
2022-08-17T06:32:59.408Z,21.20
2022-08-17T06:35:37.109Z,21.20
2022-08-17T06:39:00.131Z,21.20
2022-08-17T06:41:38.137Z,21.10
2022-08-17T06:44:49.700Z,21.00
2022-08-17T06:47:28.872Z,20.90
2022-08-17T06:50:08.068Z,20.90
2022-08-17T06:53:12.749Z,20.90
2022-08-17T06:56:08.746Z,20.90
2022-08-17T06:58:38.806Z,21.00
2022-08-17T07:01:20.297Z,21.00
2022-08-17T07:04:00.099Z,21.00
2022-08-17T07:06:44.514Z,21.00
2022-08-17T07:09:21.485Z,21.00
2022-08-17T07:11:55.440Z,21.00
2022-08-17T07:14:51.679Z,21.10
2022-08-17T07:17:21.784Z,21.20
2022-08-17T07:20:14.914Z,21.20
2022-08-17T07:23:17.371Z,21.30
2022-08-17T07:25:44.069Z,21.40
2022-08-17T07:28:12.239Z,21.50
2022-08-17T07:30:49.137Z,21.60
2022-08-17T07:33:20.149Z,21.80
2022-08-17T07:35:49.879Z,21.90
2022-08-17T07:38:26.855Z,22.00
2022-08-17T07:41:03.643Z,22.10
2022-08-17T07:43:41.217Z,22.20
2022-08-17T07:46:40.177Z,22.30
2022-08-17T07:49:09.830Z,22.30
2022-08-17T07:51:39.599Z,22.50
2022-08-17T07:54:22.192Z,22.50
2022-08-17T07:56:50.280Z,22.60
2022-08-17T07:59:24.472Z,22.60
2022-08-17T08:01:57.687Z,22.70
2022-08-17T08:05:10.291Z,22.70
2022-08-17T08:07:56.023Z,22.80
2022-08-17T08:10:31.273Z,22.80
2022-08-17T08:13:23.717Z,22.80
2022-08-17T08:15:54.878Z,22.80
2022-08-17T08:18:38.567Z,22.90
2022-08-17T08:21:19.244Z,22.90
2022-08-17T08:24:00.967Z,23.00
2022-08-17T08:26:45.040Z,23.00
2022-08-17T08:29:37.878Z,23.00
2022-08-17T08:32:13.439Z,23.00
2022-08-17T08:35:01.416Z,23.00
2022-08-17T08:38:07.411Z,23.00
2022-08-17T08:40:56.791Z,23.10
2022-08-17T08:43:53.280Z,23.10
2022-08-17T08:46:42.319Z,23.10
2022-08-17T08:49:38.992Z,23.10
2022-08-17T08:52:21.657Z,23.20
2022-08-17T08:55:07.715Z,23.20
2022-08-17T08:57:42.174Z,23.20
2022-08-17T09:00:20.957Z,23.20
2022-08-17T09:02:56.754Z,23.30
2022-08-17T09:05:29.466Z,23.30
2022-08-17T09:08:23.399Z,23.40
2022-08-17T09:11:05.170Z,23.40
2022-08-17T09:14:01.872Z,23.50
2022-08-17T09:17:02.672Z,23.60
2022-08-17T09:19:41.257Z,23.70
2022-08-17T09:22:32.567Z,23.70
2022-08-17T09:25:09.947Z,23.80
2022-08-17T09:27:48.451Z,23.80
2022-08-17T09:30:15.605Z,23.90
2022-08-17T09:33:06.809Z,23.80
2022-08-17T09:35:42.330Z,23.80
2022-08-17T09:38:32.578Z,23.90
2022-08-17T09:41:12.095Z,23.90
2022-08-17T09:43:41.444Z,23.90
2022-08-17T09:46:38.969Z,23.90
2022-08-17T09:49:29.440Z,23.90
2022-08-17T09:52:02.817Z,24.00
2022-08-17T09:54:42.586Z,24.00
2022-08-17T09:57:30.416Z,24.10
2022-08-17T09:59:57.980Z,24.10
2022-08-17T10:02:54.352Z,24.10
2022-08-17T10:05:33.025Z,24.10
2022-08-17T10:08:22.939Z,24.10
2022-08-17T10:11:48.308Z,24.10
2022-08-17T10:14:37.305Z,24.10
2022-08-17T10:17:29.318Z,24.10
2022-08-17T10:20:25.572Z,24.00
2022-08-17T10:23:20.863Z,24.00
2022-08-17T10:26:04.443Z,24.00
2022-08-17T10:29:06.929Z,24.00
2022-08-17T10:32:12.272Z,24.10
2022-08-17T10:34:41.565Z,24.10
2022-08-17T10:37:40.611Z,24.10
2022-08-17T10:40:10.429Z,24.20
2022-08-17T10:42:50.113Z,24.20
2022-08-17T10:45:26.160Z,24.20
2022-08-17T10:48:32.934Z,24.10
2022-08-17T10:51:20.465Z,24.20
2022-08-17T10:53:50.978Z,24.10
2022-08-17T10:56:22.468Z,24.30
2022-08-17T10:58:54.888Z,24.30
2022-08-17T11:02:04.185Z,24.50
2022-08-17T11:04:40.659Z,24.50
2022-08-17T11:07:16.419Z,24.60
2022-08-17T11:09:45.952Z,24.70
2022-08-17T11:12:39.636Z,24.80
2022-08-17T11:15:28.064Z,24.90
2022-08-17T11:18:04.228Z,24.90
2022-08-17T11:20:54.109Z,25.00
2022-08-17T11:23:26.844Z,25.10
2022-08-17T11:25:58.949Z,25.10
2022-08-17T11:28:34.526Z,25.20
2022-08-17T11:31:38.386Z,25.20
2022-08-17T11:34:26.180Z,25.30
2022-08-17T11:37:05.274Z,25.40
2022-08-17T11:39:39.154Z,25.50
2022-08-17T11:42:17.903Z,25.50
2022-08-17T11:44:57.880Z,25.50
2022-08-17T11:48:26.566Z,25.50
2022-08-17T11:51:24.467Z,25.50
2022-08-17T11:54:03.566Z,25.50
2022-08-17T11:56:43.379Z,25.50
2022-08-17T11:59:41.901Z,25.50
2022-08-17T12:02:30.335Z,25.50
2022-08-17T12:05:04.856Z,25.60
2022-08-17T12:07:48.817Z,25.60
2022-08-17T12:10:21.936Z,25.80
2022-08-17T12:12:54.889Z,25.90
2022-08-17T12:15:34.404Z,26.10
2022-08-17T12:18:03.207Z,26.20
2022-08-17T12:20:37.083Z,26.30
2022-08-17T12:23:09.372Z,26.30
2022-08-17T12:25:49.262Z,26.40
2022-08-17T12:28:30.253Z,26.50
2022-08-17T12:31:04.578Z,26.60
2022-08-17T12:33:31.665Z,26.70
2022-08-17T12:36:03.622Z,26.80
2022-08-17T12:38:36.628Z,26.90
2022-08-17T12:41:25.941Z,27.00
2022-08-17T12:44:02.600Z,27.10
2022-08-17T12:46:49.003Z,27.20
2022-08-17T12:49:39.685Z,27.30
2022-08-17T12:52:17.630Z,27.40
2022-08-17T12:54:52.830Z,27.40
2022-08-17T12:57:25.727Z,27.50
2022-08-17T12:59:59.043Z,27.50
2022-08-17T13:02:41.287Z,27.50
2022-08-17T13:05:36.605Z,27.50
2022-08-17T13:08:26.879Z,27.60
2022-08-17T13:10:57.296Z,27.60
2022-08-17T13:13:29.008Z,27.60
2022-08-17T13:15:58.677Z,27.60
2022-08-17T13:18:40.216Z,27.70
2022-08-17T13:21:22.266Z,27.80
2022-08-17T13:24:01.279Z,27.90
2022-08-17T13:26:35.432Z,27.90
2022-08-17T13:29:06.225Z,28.00
2022-08-17T13:31:51.966Z,28.00
2022-08-17T13:34:33.565Z,28.00
2022-08-17T13:37:26.304Z,28.10
2022-08-17T13:40:07.447Z,28.20
2022-08-17T13:42:51.595Z,28.30
2022-08-17T13:45:36.733Z,28.40
2022-08-17T13:48:13.571Z,28.40
2022-08-17T13:51:07.188Z,28.40
2022-08-17T13:53:37.082Z,28.50
2022-08-17T13:56:39.851Z,28.50
2022-08-17T13:59:12.903Z,28.50
2022-08-17T14:01:41.974Z,28.50
2022-08-17T14:04:16.079Z,28.50
2022-08-17T14:06:56.981Z,28.50
2022-08-17T14:09:34.881Z,28.50
2022-08-17T14:12:08.828Z,28.60
2022-08-17T14:14:36.418Z,28.70
2022-08-17T14:17:05.844Z,28.70
2022-08-17T14:19:35.732Z,28.60
2022-08-17T14:22:03.086Z,28.70
2022-08-17T14:24:32.745Z,28.70
2022-08-17T14:27:04.213Z,28.70
2022-08-17T14:29:36.057Z,28.80
2022-08-17T14:32:13.817Z,28.80
2022-08-17T14:34:40.799Z,28.90
2022-08-17T14:37:14.574Z,28.90
2022-08-17T14:39:41.676Z,28.90
2022-08-17T14:42:11.324Z,28.90
2022-08-17T14:44:41.253Z,29.00
2022-08-17T14:47:14.951Z,29.00
2022-08-17T14:49:42.290Z,29.00
2022-08-17T14:52:14.371Z,29.00
2022-08-17T14:54:45.900Z,29.00
2022-08-17T14:57:33.224Z,29.00
2022-08-17T15:00:01.865Z,29.00
2022-08-17T15:02:31.345Z,29.00
2022-08-17T15:05:00.221Z,28.90
2022-08-17T15:07:30.417Z,28.90
2022-08-17T15:10:02.152Z,28.90
2022-08-17T15:12:33.248Z,29.00
2022-08-17T15:15:05.328Z,29.10
2022-08-17T15:17:44.906Z,29.10
2022-08-17T15:20:24.740Z,29.10
2022-08-17T15:22:55.632Z,29.10
2022-08-17T15:25:24.370Z,29.10
2022-08-17T15:27:51.886Z,29.10
2022-08-17T15:30:19.464Z,29.00
2022-08-17T15:32:51.116Z,29.00
2022-08-17T15:35:29.576Z,29.10
2022-08-17T15:38:10.603Z,29.10
2022-08-17T15:40:45.194Z,29.10
2022-08-17T15:43:27.358Z,29.20
2022-08-17T15:46:09.031Z,29.10
2022-08-17T15:48:42.593Z,29.20
2022-08-17T15:51:27.335Z,29.20
2022-08-17T15:54:00.229Z,29.20
2022-08-17T15:56:37.687Z,29.10
2022-08-17T15:59:07.251Z,29.20
2022-08-17T16:02:14.243Z,29.10
2022-08-17T16:04:30.314Z,29.20
2022-08-17T16:06:58.499Z,29.10
2022-08-17T16:09:25.284Z,29.20
2022-08-17T16:11:53.870Z,29.10
2022-08-17T16:14:25.842Z,29.10
2022-08-17T16:17:00.584Z,29.10
2022-08-17T16:19:27.594Z,29.10
2022-08-17T16:21:54.287Z,29.10
2022-08-17T16:24:21.637Z,29.10
2022-08-17T16:26:48.375Z,29.00
2022-08-17T16:29:15.051Z,29.00
2022-08-17T16:31:42.344Z,29.00
2022-08-17T16:34:17.411Z,29.00
2022-08-17T16:36:51.664Z,29.00
2022-08-17T16:39:23.872Z,29.00
2022-08-17T16:41:52.715Z,29.00
2022-08-17T16:44:21.461Z,29.00
2022-08-17T16:46:51.463Z,29.00
2022-08-17T16:49:35.821Z,28.90
2022-08-17T16:52:07.470Z,28.90
2022-08-17T16:54:38.222Z,28.80
2022-08-17T16:57:05.453Z,28.80
2022-08-17T16:59:41.099Z,28.80
2022-08-17T17:02:12.880Z,28.80
2022-08-17T17:04:53.003Z,28.80
2022-08-17T17:07:38.456Z,28.80
2022-08-17T17:10:09.579Z,28.70
2022-08-17T17:13:01.656Z,28.70
2022-08-17T17:15:39.381Z,28.80
2022-08-17T17:18:10.416Z,28.70
2022-08-17T17:20:49.269Z,28.70
2022-08-17T17:23:35.113Z,28.70
2022-08-17T17:26:24.541Z,28.70
2022-08-17T17:29:16.195Z,28.70
2022-08-17T17:31:51.887Z,28.70
2022-08-17T17:34:19.546Z,28.70
2022-08-17T17:36:56.432Z,28.60
2022-08-17T17:39:53.533Z,28.60
2022-08-17T17:42:28.161Z,28.50
2022-08-17T17:45:16.866Z,28.50
2022-08-17T17:47:44.565Z,28.50
2022-08-17T17:50:11.672Z,28.40
2022-08-17T17:53:07.551Z,28.40
2022-08-17T17:56:01.317Z,28.40
2022-08-17T17:58:40.475Z,28.30
2022-08-17T18:01:34.304Z,28.20
2022-08-17T18:04:26.062Z,28.20
2022-08-17T18:07:05.481Z,28.20
2022-08-17T18:10:29.611Z,28.20
2022-08-17T18:12:57.374Z,28.10
2022-08-17T18:15:35.576Z,28.00
2022-08-17T18:18:11.530Z,28.00
2022-08-17T18:20:53.399Z,28.00
2022-08-17T18:23:28.502Z,27.90
2022-08-17T18:25:57.004Z,27.90
2022-08-17T18:28:31.418Z,27.90
2022-08-17T18:31:16.639Z,27.90
2022-08-17T18:33:46.966Z,27.80
2022-08-17T18:36:33.009Z,27.80
2022-08-17T18:39:25.809Z,27.70
2022-08-17T18:41:58.471Z,27.70
2022-08-17T18:44:32.621Z,27.70
2022-08-17T18:47:19.079Z,27.60
2022-08-17T18:50:19.931Z,27.60
2022-08-17T18:52:48.883Z,27.50
2022-08-17T18:55:24.407Z,27.50
2022-08-17T18:57:57.888Z,27.40
2022-08-17T19:00:44.679Z,27.40
2022-08-17T19:03:20.104Z,27.30
2022-08-17T19:05:57.340Z,27.30
2022-08-17T19:08:30.323Z,27.20
2022-08-17T19:11:08.398Z,27.20
2022-08-17T19:13:46.926Z,27.10
2022-08-17T19:16:32.273Z,27.10
2022-08-17T19:19:14.496Z,27.10
2022-08-17T19:22:06.357Z,27.00
2022-08-17T19:24:34.861Z,27.00
2022-08-17T19:27:16.666Z,26.90
2022-08-17T19:29:54.783Z,26.80
2022-08-17T19:32:35.757Z,26.80
2022-08-17T19:35:07.224Z,26.70
2022-08-17T19:37:47.222Z,26.60
2022-08-17T19:40:35.085Z,26.60
2022-08-17T19:43:23.659Z,26.50
2022-08-17T19:46:15.686Z,26.40
2022-08-17T19:49:07.702Z,26.40
2022-08-17T19:51:38.703Z,26.30
2022-08-17T19:54:39.335Z,26.20
2022-08-17T19:57:20.276Z,26.20
2022-08-17T19:59:58.921Z,26.10
2022-08-17T20:02:39.776Z,26.10
2022-08-17T20:05:21.339Z,26.10
2022-08-17T20:08:11.299Z,26.00
2022-08-17T20:10:57.537Z,26.00
2022-08-17T20:13:48.922Z,25.90
2022-08-17T20:16:19.626Z,25.90
2022-08-17T20:19:08.321Z,25.80
2022-08-17T20:21:40.791Z,25.80
2022-08-17T20:24:16.668Z,25.70
2022-08-17T20:27:13.637Z,25.70
2022-08-17T20:30:01.498Z,25.60
2022-08-17T20:32:35.461Z,25.50
2022-08-17T20:35:20.999Z,25.50
2022-08-17T20:37:58.794Z,25.50
2022-08-17T20:40:46.263Z,25.50
2022-08-17T20:43:33.873Z,25.50
2022-08-17T20:46:26.770Z,25.40
2022-08-17T20:48:56.954Z,25.40
2022-08-17T20:52:00.739Z,25.30
2022-08-17T20:54:54.569Z,25.30
2022-08-17T20:57:36.364Z,25.30
2022-08-17T21:00:16.812Z,25.30
2022-08-17T21:02:51.486Z,25.20
2022-08-17T21:05:37.215Z,25.20
2022-08-17T21:08:18.173Z,25.20
2022-08-17T21:10:47.034Z,25.20
2022-08-17T21:13:15.568Z,25.20
2022-08-17T21:15:44.632Z,25.20
2022-08-17T21:18:25.907Z,25.20
2022-08-17T21:21:20.380Z,25.20
2022-08-17T21:23:58.189Z,25.10
2022-08-17T21:26:50.144Z,25.10
2022-08-17T21:29:31.019Z,25.10
2022-08-17T21:32:01.564Z,25.10
2022-08-17T21:34:34.694Z,25.10
2022-08-17T21:37:20.062Z,25.10
2022-08-17T21:39:54.750Z,25.10
2022-08-17T21:42:34.425Z,25.10
2022-08-17T21:45:17.802Z,25.00
2022-08-17T21:48:07.277Z,25.00
2022-08-17T21:50:35.470Z,24.90
2022-08-17T21:53:08.819Z,24.90
2022-08-17T21:55:38.705Z,24.90
2022-08-17T21:58:21.582Z,24.90
2022-08-17T22:01:13.891Z,24.80
2022-08-17T22:03:44.914Z,24.80
2022-08-17T22:06:29.253Z,24.80
2022-08-17T22:09:04.811Z,24.80
2022-08-17T22:11:31.873Z,24.70
2022-08-17T22:14:05.679Z,24.70
2022-08-17T22:16:32.886Z,24.70
2022-08-17T22:19:04.100Z,24.70
2022-08-17T22:21:30.963Z,24.70
2022-08-17T22:24:06.939Z,24.70
2022-08-17T22:27:03.500Z,24.60
2022-08-17T22:29:53.188Z,24.60
2022-08-17T22:32:47.683Z,24.60
2022-08-17T22:35:34.557Z,24.50
2022-08-17T22:38:19.662Z,24.50
2022-08-17T22:40:59.833Z,24.50
2022-08-17T22:43:31.508Z,24.50
2022-08-17T22:46:01.791Z,24.50
2022-08-17T22:48:32.504Z,24.50
2022-08-17T22:51:13.756Z,24.40
2022-08-17T22:54:09.472Z,24.40
2022-08-17T22:56:55.504Z,24.40
2022-08-17T22:59:41.826Z,24.40
2022-08-17T23:02:14.612Z,24.30
2022-08-17T23:04:48.626Z,24.30
2022-08-17T23:07:15.713Z,24.30
2022-08-17T23:09:42.646Z,24.30
2022-08-17T23:12:16.279Z,24.30
2022-08-17T23:14:46.908Z,24.20
2022-08-17T23:17:16.276Z,24.20
2022-08-17T23:19:43.205Z,24.20
2022-08-17T23:22:11.042Z,24.20
2022-08-17T23:24:46.395Z,24.10
2022-08-17T23:27:13.315Z,24.10
2022-08-17T23:29:42.080Z,24.10
2022-08-17T23:32:14.721Z,24.10
2022-08-17T23:34:47.898Z,24.00
2022-08-17T23:37:15.721Z,24.00
2022-08-17T23:39:46.067Z,24.00
2022-08-17T23:42:21.662Z,24.00
2022-08-17T23:44:48.725Z,23.90
2022-08-17T23:47:18.901Z,23.90
2022-08-17T23:49:45.924Z,23.80
2022-08-17T23:52:18.082Z,23.80
2022-08-17T23:54:50.510Z,23.70
2022-08-17T23:57:33.683Z,23.70
